首页
METAR-TAF:

METAR-TAF

机场 :

恩斯河谷艾根

Aigen im Ennstal, 奥地利

纬度: 47-32N, 经度: 014-08E, 海拔: 638米

METAR: 丢失

时间: 05:11 (04:11 UTC)

预报

该预报发布于16小时和56分钟前的11:15 UTC
预报有效从13日的 12点(UTC)到 13日的 21点(UTC)
风速3节,风向多变
能見度: 4000
少量云层高于300英尺
多云层高于1000英尺
小雪
短暂存在
从 13日的 12点(UTC)到 13日的 21点(UTC)
风速7节,风向西南
能見度: 1400
少量云层高于300英尺
阴天层高于700英尺
几率 30% :
短暂存在
从 13日的 12点(UTC)到 13日的 18点(UTC)
能見度: 0500
层高于500英尺
大雪

TAF: LOXA 131115Z 1312/1321 VRB03KT 4000 -SN FEW003 BKN010 TEMPO 1312/1321 23007KT 1400 SN FEW003 OVC007 PROB30 TEMPO 1312/1318 0500 +SN VV005

超过4000个机场的气象观测和天气预报(METAR&TAF报告)。

可查询的气象台以黄色和红色小点在地图上表示。

将鼠标移到小点上方,可查看气象台名称。

然后点击查看天气观测和预报。

如需切换地图:点击带黑十字的绿色按钮放大地图;点击带横线的绿色按钮缩小地图;或者点击绿色箭头查看邻近地区的地图。


METAR-TAF: